You are not logged in, Click here to log in
羅馬-菲烏米奇諾機場 / LIRF 義大利拉齊奧大區羅馬省菲烏米奇諾
ICAO: LIRF Country: 義大利拉齊奧大區羅馬省菲烏米奇諾
Latitude: 41.7999 Longitude: 12.2462
Total Arrivals: 15 Total Departures: 13
Latest Arrival: CI88 (RCTP-LIRF)CHANG SHENG. HSIUNG Latest Departure: FR6984D (LIRF-EDLW)Stone. Chang
Scenery:
METAR : LIRF 190350Z VRB02KT 0200 R16L/0550N R16R/1000D R25/0275D R34R/0550N FG NSC 07/07 Q1022 NOSIG

羅馬-菲烏米奇諾機場

You are accessing this site from IP address 35.175.113.29. Virtual Airline. CMS by phpVMS.Website designed by Zumeweb and edited by Theo Bearman.
There is 0 User(s) Online: | and 4 Guest(s) Online.
All information on this site is for fight simulation purposes only. This site is for flight logging for pilots of Virtual Airline&模擬飛行論壇 FlySim only.